»·PEaware :: WAT540 KEUG-KPDX

WAT540 :: KEUG-KPDX

FLIGHT INFORMATION

Flight Status: Arrived
Operator:
Walker Air Transport
More flights by this operator :: More flights under this callsign
Pilot: Michael R. (33632)
Aircraft: GRUMMAN AERO AA5 CHEETAH TIGER
(AA5)
More flights by this aircraft type
Origin: KEUG Mahlon Sweet
United States
Destination: KPDX Portland Intl
United States
More flights between these airports :: More routes between these airports
Route:
File this flight plan on PilotEdge
Remarks:
Altitude:
(Current/Filed)
5,500ft
Speed:
(Current/Filed)
130kts
Departed: 18-Feb-21 12:49 PM
Arrived: 18-Feb-21 01:40 PM
Distance/Time
Traveled:
92nm/0:51
Distance/Time
To Go:
Arrived

Flight Plot

Page will automatically refresh every two minutes.

Flight plan parsing failed; only flown route is shown


Map Options




Map Legend


Flown Route
Filed Route
Departure Airport
Arrival Airport
Navaid (VOR, NDB)
Fix

Horizontal Profiles

Position Reports

Time Latitude Longitude Heading Altitude Ground
Speed
18-Feb-21 12:16 44.115148 -123.215522 1 366ft 0kts
18-Feb-21 12:17 44.115148 -123.215522 1 366ft 0kts
18-Feb-21 12:18 44.115148 -123.215522 1 366ft 0kts
18-Feb-21 12:19 44.115148 -123.215522 1 366ft 0kts
18-Feb-21 12:20 44.115148 -123.215522 1 366ft 0kts
18-Feb-21 12:21 44.115148 -123.215522 1 366ft 0kts
18-Feb-21 12:22 44.115148 -123.215522 1 366ft 0kts
18-Feb-21 12:23 44.115148 -123.215522 1 366ft 0kts
18-Feb-21 12:24 44.115148 -123.215522 1 366ft 0kts
18-Feb-21 12:25 44.115148 -123.215522 1 366ft 0kts
18-Feb-21 12:26 44.115148 -123.215522 1 366ft 0kts
18-Feb-21 12:27 44.115148 -123.215522 1 366ft 0kts
18-Feb-21 12:28 44.115148 -123.215522 1 366ft 0kts
18-Feb-21 12:29 44.115148 -123.215522 1 366ft 0kts
18-Feb-21 12:30 44.115148 -123.215522 1 366ft 0kts
18-Feb-21 12:31 44.115148 -123.215522 1 366ft 0kts
18-Feb-21 12:32 44.115148 -123.215522 1 366ft 0kts
18-Feb-21 12:33 44.115148 -123.215522 1 366ft 0kts
18-Feb-21 12:34 44.115148 -123.215522 1 366ft 0kts
18-Feb-21 12:35 44.115148 -123.215522 1 366ft 0kts
18-Feb-21 12:36 44.115148 -123.215522 1 366ft 0kts
18-Feb-21 12:37 44.115221 -123.215523 355 366ft 0kts
18-Feb-21 12:38 44.115221 -123.215523 355 366ft 0kts
18-Feb-21 12:39 44.115221 -123.215523 355 366ft 0kts
18-Feb-21 12:40 44.115221 -123.215523 355 366ft 0kts
18-Feb-21 12:41 44.115221 -123.215523 355 366ft 0kts
18-Feb-21 12:42 44.115364 -123.215722 295 366ft 8kts
18-Feb-21 12:43 44.118189 -123.216992 1 365ft 23kts
18-Feb-21 12:44 44.125940 -123.217036 359 360ft 23kts
18-Feb-21 12:45 44.133091 -123.217200 359 354ft 28kts
18-Feb-21 12:46 44.135303 -123.217900 267 353ft 0kts
18-Feb-21 12:47 44.134523 -123.219168 178 353ft 34kts
18-Feb-21 12:48 44.115312 -123.219076 178 1156ft 72kts
18-Feb-21 12:49 44.094301 -123.218115 178 2093ft 74kts
18-Feb-21 12:50 44.073112 -123.217134 193 3001ft 72kts
18-Feb-21 12:51 44.073104 -123.240606 342 3780ft 121kts
18-Feb-21 12:52 44.103944 -123.219923 28 4522ft 124kts
18-Feb-21 12:53 44.138969 -123.211119 358 5206ft 127kts
18-Feb-21 12:54 44.176127 -123.208528 358 5493ft 152kts
18-Feb-21 12:55 44.221204 -123.205486 358 5488ft 155kts
18-Feb-21 12:56 44.266614 -123.202449 358 5489ft 155kts
18-Feb-21 12:57 44.299301 -123.199692 5 5493ft 154kts
18-Feb-21 12:58 44.339248 -123.196620 3 5488ft 136kts
18-Feb-21 12:59 44.376706 -123.194087 2 5489ft 134kts
18-Feb-21 13:00 44.414005 -123.191583 2 5495ft 133kts
18-Feb-21 13:01 44.451151 -123.189088 2 5498ft 134kts
18-Feb-21 13:02 44.488275 -123.186591 2 5498ft 134kts
18-Feb-21 13:03 44.525536 -123.184083 2 5498ft 134kts
18-Feb-21 13:04 44.562606 -123.181583 2 5498ft 134kts
18-Feb-21 13:05 44.599866 -123.179044 3 5498ft 134kts
18-Feb-21 13:06 44.637053 -123.176065 3 5498ft 134kts
18-Feb-21 13:07 44.674245 -123.173343 2 5498ft 134kts
18-Feb-21 13:08 44.711337 -123.170801 2 5498ft 134kts
18-Feb-21 13:09 44.748565 -123.168286 2 5498ft 134kts
18-Feb-21 13:10 44.785799 -123.165775 2 5499ft 134kts
18-Feb-21 13:11 44.823218 -123.163250 2 5498ft 135kts
18-Feb-21 13:12 44.860651 -123.160721 2 5498ft 135kts
18-Feb-21 13:13 44.898165 -123.158184 2 5498ft 135kts
18-Feb-21 13:14 44.935745 -123.155639 2 5498ft 135kts
18-Feb-21 13:15 44.973509 -123.153077 2 5498ft 135kts
18-Feb-21 13:16 45.011506 -123.150497 2 5498ft 135kts
18-Feb-21 13:17 45.049111 -123.147940 2 5498ft 135kts
18-Feb-21 13:18 45.087177 -123.142854 31 5496ft 135kts
18-Feb-21 13:19 45.117761 -123.112081 36 5498ft 135kts
18-Feb-21 13:20 45.147667 -123.080057 37 5498ft 135kts
18-Feb-21 13:21 45.177507 -123.047725 37 5498ft 135kts
18-Feb-21 13:22 45.207371 -123.015406 37 5498ft 135kts
18-Feb-21 13:23 45.237157 -122.982986 37 5498ft 135kts
18-Feb-21 13:24 45.266928 -122.950451 37 5498ft 135kts
18-Feb-21 13:25 45.296718 -122.917877 37 5498ft 135kts
18-Feb-21 13:26 45.327864 -122.883775 37 5147ft 150kts
18-Feb-21 13:27 45.361463 -122.846924 37 4679ft 153kts
18-Feb-21 13:28 45.394920 -122.810178 37 4219ft 148kts
18-Feb-21 13:29 45.427236 -122.774635 37 3737ft 146kts
18-Feb-21 13:30 45.459219 -122.739392 37 3255ft 142kts
18-Feb-21 13:31 45.489985 -122.705461 37 2742ft 138kts
18-Feb-21 13:32 45.520224 -122.672053 37 2226ft 138kts
18-Feb-21 13:33 45.550069 -122.653023 323 1715ft 119kts
18-Feb-21 13:34 45.574254 -122.676399 359 1637ft 99kts
18-Feb-21 13:35 45.598283 -122.664741 48 1457ft 92kts
18-Feb-21 13:36 45.605677 -122.632238 91 906ft 81kts
18-Feb-21 13:37 45.597504 -122.602480 119 115ft 79kts
18-Feb-21 13:38 45.588796 -122.580265 119 18ft 46kts
18-Feb-21 13:39 45.586309 -122.576382 224 18ft 0kts
18-Feb-21 13:40 45.584518 -122.576237 163 18ft 10kts

Navigation Log

Ident Type
Flight plan parsing failed, navigation log unavailable